createdAt,value
2019-05-13T00:00:03.596Z,15.23
2019-05-13T00:02:07.059Z,15.70
2019-05-13T00:04:11.238Z,15.90
2019-05-13T00:06:15.147Z,16.52
2019-05-13T00:08:21.739Z,17.17
2019-05-13T00:10:24.935Z,18.23
2019-05-13T00:12:29.335Z,15.78
2019-05-13T00:14:34.441Z,17.37
2019-05-13T00:16:38.454Z,15.85
2019-05-13T00:18:44.258Z,18.10
2019-05-13T00:20:48.025Z,19.10
2019-05-13T00:22:53.835Z,17.32
2019-05-13T00:24:57.826Z,17.27
2019-05-13T00:27:03.887Z,18.50
2019-05-13T00:29:07.660Z,17.25
2019-05-13T00:31:13.703Z,16.62
2019-05-13T00:33:17.400Z,18.35
2019-05-13T00:35:23.256Z,16.52
2019-05-13T00:37:27.051Z,18.42
2019-05-13T00:39:33.403Z,18.02
2019-05-13T00:41:36.704Z,16.97
2019-05-13T00:43:40.675Z,21.00
2019-05-13T00:45:45.300Z,18.60
2019-05-13T00:47:49.307Z,18.62
2019-05-13T00:49:54.091Z,18.32
2019-05-13T00:51:58.160Z,18.82
2019-05-13T00:54:04.150Z,21.07
2019-05-13T00:56:07.994Z,20.30
2019-05-13T00:58:13.972Z,22.27
2019-05-13T01:02:33.808Z,27.05
2019-05-13T01:04:37.901Z,25.40
2019-05-13T01:06:43.554Z,24.52
2019-05-13T01:08:47.451Z,26.25
2019-05-13T01:10:53.536Z,24.63
2019-05-13T01:12:56.812Z,25.62
2019-05-13T01:15:00.734Z,23.70
2019-05-13T01:17:04.721Z,26.65
2019-05-13T01:19:08.575Z,23.42
2019-05-13T01:21:13.346Z,22.70
2019-05-13T01:23:17.300Z,22.77
2019-05-13T01:25:21.203Z,23.42
2019-05-13T01:27:27.811Z,23.22
2019-05-13T01:29:31.651Z,23.87
2019-05-13T01:31:35.978Z,22.67
2019-05-13T01:33:39.850Z,24.98
2019-05-13T01:35:44.468Z,22.25
2019-05-13T01:37:48.739Z,23.25
2019-05-13T01:39:54.051Z,22.37
2019-05-13T01:41:58.110Z,21.33
2019-05-13T01:44:04.001Z,20.52
2019-05-13T01:46:07.615Z,20.05
2019-05-13T01:48:13.876Z,20.68
2019-05-13T01:50:17.110Z,23.70
2019-05-13T01:52:20.983Z,25.95
2019-05-13T01:54:24.835Z,27.30
2019-05-13T01:56:28.746Z,28.98
2019-05-13T01:58:33.962Z,29.67
2019-05-13T02:00:40.087Z,30.52
2019-05-13T02:02:44.612Z,35.13
2019-05-13T02:04:48.646Z,27.77
2019-05-13T02:06:54.372Z,33.23
2019-05-13T02:08:57.996Z,29.15
2019-05-13T02:11:04.047Z,31.93
2019-05-13T02:13:07.640Z,30.02
2019-05-13T02:15:14.306Z,30.35
2019-05-13T02:17:17.479Z,26.45
2019-05-13T02:19:21.732Z,30.32
2019-05-13T02:21:25.592Z,28.45
2019-05-13T02:23:29.450Z,29.37
2019-05-13T02:25:34.054Z,24.95
2019-05-13T02:27:38.037Z,29.95
2019-05-13T02:29:43.618Z,28.38
2019-05-13T02:31:55.210Z,24.32
2019-05-13T02:33:53.284Z,23.85
2019-05-13T02:35:57.166Z,27.65
2019-05-13T02:38:17.430Z,28.50
2019-05-13T02:40:07.514Z,24.30
2019-05-13T02:42:13.242Z,23.15
2019-05-13T02:44:17.023Z,21.52
2019-05-13T02:46:22.639Z,22.27
2019-05-13T02:48:26.421Z,27.50
2019-05-13T02:50:33.895Z,24.75
2019-05-13T02:52:36.649Z,24.20
2019-05-13T02:54:42.755Z,23.35
2019-05-13T02:56:46.041Z,23.00
2019-05-13T02:58:52.620Z,20.43
2019-05-13T03:00:55.570Z,20.88
2019-05-13T03:03:02.891Z,17.57
2019-05-13T03:05:08.238Z,19.25
2019-05-13T03:07:12.216Z,20.88
2019-05-13T03:09:16.041Z,23.77
2019-05-13T03:11:22.665Z,20.35
2019-05-13T03:13:25.578Z,18.50
2019-05-13T03:15:32.750Z,18.15
2019-05-13T03:17:53.307Z,19.98
2019-05-13T03:19:57.239Z,16.17
2019-05-13T03:22:03.077Z,18.75
2019-05-13T03:24:06.702Z,20.50
2019-05-13T03:26:13.041Z,17.52
2019-05-13T03:28:16.170Z,18.35
2019-05-13T03:30:25.277Z,15.72
2019-05-13T03:32:31.168Z,17.12
2019-05-13T03:34:35.801Z,16.23
2019-05-13T03:36:44.989Z,17.77
2019-05-13T03:39:01.867Z,16.75
2019-05-13T03:40:52.737Z,16.45
2019-05-13T03:43:02.305Z,20.85
2019-05-13T03:45:05.954Z,19.00
2019-05-13T03:47:15.946Z,17.45
2019-05-13T03:49:23.285Z,18.25
2019-05-13T03:51:27.407Z,17.17
2019-05-13T03:53:32.586Z,15.50
2019-05-13T03:55:36.843Z,16.27
2019-05-13T03:57:42.615Z,16.10
2019-05-13T03:59:46.334Z,22.40
2019-05-13T04:01:52.442Z,15.93
2019-05-13T04:03:56.104Z,16.35
2019-05-13T04:06:06.031Z,19.92
2019-05-13T04:08:12.983Z,16.17
2019-05-13T04:10:15.577Z,15.08
2019-05-13T04:12:22.930Z,12.90
2019-05-13T04:14:27.485Z,14.10
2019-05-13T04:16:32.333Z,18.67
2019-05-13T04:18:36.364Z,20.68
2019-05-13T04:20:42.430Z,14.50
2019-05-13T04:22:46.263Z,13.45
2019-05-13T04:24:53.050Z,13.68
2019-05-13T04:26:56.005Z,16.93
2019-05-13T04:29:03.040Z,11.08
2019-05-13T04:31:05.645Z,15.85
2019-05-13T04:33:09.746Z,15.28
2019-05-13T04:35:13.691Z,12.65
2019-05-13T04:37:22.010Z,14.40
2019-05-13T04:39:40.344Z,12.03
2019-05-13T04:41:33.106Z,12.73
2019-05-13T04:43:36.070Z,16.07
2019-05-13T04:45:42.863Z,13.90
2019-05-13T04:47:45.699Z,13.38
2019-05-13T04:49:53.202Z,13.98
2019-05-13T04:51:55.197Z,16.62
2019-05-13T04:54:02.491Z,16.52
2019-05-13T04:56:04.811Z,11.80
2019-05-13T04:58:08.656Z,12.10
2019-05-13T05:00:13.084Z,14.20
2019-05-13T05:02:39.997Z,15.68
2019-05-13T05:07:13.506Z,17.57
2019-05-13T05:09:29.273Z,9.75
2019-05-13T05:12:02.185Z,17.50
2019-05-13T05:14:26.542Z,12.58
2019-05-13T05:16:44.731Z,14.47
2019-05-13T05:19:01.797Z,13.25
2019-05-13T05:21:13.670Z,18.12
2019-05-13T05:23:42.251Z,13.22
2019-05-13T05:25:49.231Z,10.98
2019-05-13T05:28:14.275Z,14.50
2019-05-13T05:30:24.046Z,15.18
2019-05-13T05:32:36.550Z,14.68
2019-05-13T05:35:01.236Z,9.93
2019-05-13T05:37:27.563Z,14.25
2019-05-13T05:39:31.668Z,11.90
2019-05-13T05:41:37.277Z,13.60
2019-05-13T05:43:45.334Z,9.18
2019-05-13T05:45:47.758Z,13.85
2019-05-13T05:47:53.714Z,9.40
2019-05-13T05:49:58.837Z,10.88
2019-05-13T05:52:05.670Z,12.15
2019-05-13T05:54:14.772Z,13.53
2019-05-13T05:56:21.873Z,13.48
2019-05-13T05:58:25.340Z,15.10
2019-05-13T06:00:32.370Z,15.60
2019-05-13T06:02:37.832Z,22.65
2019-05-13T06:04:43.296Z,18.37
2019-05-13T06:06:47.715Z,13.45
2019-05-13T06:08:51.781Z,10.63
2019-05-13T06:10:55.715Z,14.98
2019-05-13T06:13:01.819Z,10.08
2019-05-13T06:15:06.816Z,8.53
2019-05-13T06:17:11.494Z,10.80
2019-05-13T06:19:17.862Z,10.32
2019-05-13T06:21:21.609Z,10.63
2019-05-13T06:23:26.079Z,15.55
2019-05-13T06:25:33.350Z,14.93
2019-05-13T06:27:35.581Z,21.55
2019-05-13T06:29:41.912Z,18.17
2019-05-13T06:31:45.103Z,12.90
2019-05-13T06:33:51.267Z,10.80
2019-05-13T06:35:54.984Z,9.13
2019-05-13T06:38:01.445Z,7.70
2019-05-13T06:40:06.612Z,6.17
2019-05-13T06:42:12.771Z,13.70
2019-05-13T06:44:16.772Z,7.37
2019-05-13T06:46:21.862Z,8.83
2019-05-13T06:48:26.031Z,8.75
2019-05-13T06:50:32.185Z,7.45
2019-05-13T06:52:35.414Z,6.42
2019-05-13T06:54:41.637Z,6.65
2019-05-13T06:56:44.825Z,13.68
2019-05-13T06:58:51.968Z,14.18
2019-05-13T07:00:57.943Z,9.80
2019-05-13T07:03:02.264Z,7.90
2019-05-13T07:05:07.743Z,10.72
2019-05-13T07:07:16.774Z,8.10
2019-05-13T07:09:17.546Z,7.80
2019-05-13T07:11:24.690Z,8.15
2019-05-13T07:13:27.045Z,8.00
2019-05-13T07:15:31.472Z,5.15
2019-05-13T07:17:35.609Z,7.28
2019-05-13T07:19:41.438Z,7.65
2019-05-13T07:21:45.057Z,7.30
2019-05-13T07:23:52.147Z,9.15
2019-05-13T07:25:54.456Z,8.93
2019-05-13T07:27:58.356Z,10.35
2019-05-13T07:30:02.461Z,7.10
2019-05-13T07:32:06.352Z,7.12
2019-05-13T07:34:11.643Z,9.20
2019-05-13T07:36:15.758Z,6.15
2019-05-13T07:38:22.225Z,9.43
2019-05-13T07:40:25.635Z,10.25
2019-05-13T07:42:31.241Z,6.83
2019-05-13T07:44:35.012Z,5.37
2019-05-13T07:46:38.964Z,6.42
2019-05-13T07:48:42.819Z,11.73
2019-05-13T07:50:59.100Z,7.03
2019-05-13T07:52:52.305Z,6.85
2019-05-13T07:54:56.235Z,5.58
2019-05-13T07:57:02.236Z,6.45
2019-05-13T07:59:06.278Z,4.37
2019-05-13T08:01:12.188Z,4.05
2019-05-13T08:03:16.091Z,5.45
2019-05-13T08:05:22.230Z,6.95
2019-05-13T08:07:27.001Z,3.15
2019-05-13T08:09:31.911Z,4.92
2019-05-13T08:11:58.210Z,3.55
2019-05-13T08:13:44.894Z,5.05
2019-05-13T08:15:48.834Z,5.00
2019-05-13T08:17:52.812Z,7.78
2019-05-13T08:19:56.777Z,6.65
2019-05-13T08:22:02.107Z,5.97
2019-05-13T08:24:07.833Z,6.45
2019-05-13T08:26:12.428Z,6.92
2019-05-13T08:28:16.694Z,7.03
2019-05-13T08:30:22.773Z,11.22
2019-05-13T08:32:26.240Z,15.15
2019-05-13T08:34:32.570Z,8.30
2019-05-13T08:36:39.472Z,8.63
2019-05-13T08:38:46.226Z,6.50
2019-05-13T08:40:51.235Z,6.30
2019-05-13T08:42:55.293Z,5.80
2019-05-13T08:45:01.674Z,6.60
2019-05-13T08:47:04.694Z,9.93
2019-05-13T08:49:08.597Z,9.23
2019-05-13T08:51:12.546Z,12.80
2019-05-13T08:53:16.448Z,7.55
2019-05-13T08:55:21.444Z,10.98
2019-05-13T08:57:25.506Z,9.23
2019-05-13T08:59:31.554Z,7.67
2019-05-13T09:01:34.952Z,9.30
2019-05-13T09:03:41.456Z,10.58
2019-05-13T09:05:44.397Z,10.72
2019-05-13T09:07:48.387Z,8.45
2019-05-13T09:09:52.605Z,8.00
2019-05-13T09:11:56.491Z,17.42
2019-05-13T09:14:02.251Z,14.60
2019-05-13T09:16:06.528Z,10.65
2019-05-13T09:18:11.431Z,8.63
2019-05-13T09:20:15.494Z,7.58
2019-05-13T09:22:21.386Z,11.43
2019-05-13T09:26:31.596Z,12.85
2019-05-13T09:28:35.781Z,10.95
2019-05-13T09:30:42.169Z,17.42
2019-05-13T09:32:45.385Z,10.93
2019-05-13T09:34:49.242Z,9.60
2019-05-13T09:36:53.475Z,11.33
2019-05-13T09:38:57.277Z,11.25
2019-05-13T09:41:02.687Z,11.40
2019-05-13T09:43:06.717Z,10.10
2019-05-13T09:45:12.250Z,9.33
2019-05-13T09:47:18.280Z,9.30
2019-05-13T09:49:23.762Z,11.22
2019-05-13T09:51:28.949Z,9.80
2019-05-13T09:53:32.931Z,10.70
2019-05-13T09:55:36.781Z,15.40
2019-05-13T09:57:41.543Z,11.60
2019-05-13T09:59:45.970Z,16.52
2019-05-13T10:01:51.867Z,11.63
2019-05-13T10:03:58.122Z,11.88
2019-05-13T10:06:02.380Z,10.32
2019-05-13T10:08:06.461Z,12.98
2019-05-13T10:10:12.006Z,17.25
2019-05-13T10:12:17.600Z,17.10
2019-05-13T10:14:23.066Z,11.35
2019-05-13T10:16:27.111Z,11.22
2019-05-13T10:18:32.613Z,8.90
2019-05-13T10:20:58.314Z,12.78
2019-05-13T10:23:01.649Z,12.82
2019-05-13T10:25:07.603Z,13.48
2019-05-13T10:27:12.661Z,11.43
2019-05-13T10:29:18.167Z,11.80
2019-05-13T10:31:22.299Z,8.25
2019-05-13T10:33:26.292Z,7.00
2019-05-13T10:35:33.144Z,12.58
2019-05-13T10:37:37.484Z,8.65
2019-05-13T10:39:41.348Z,7.15
2019-05-13T10:41:45.514Z,9.88
2019-05-13T10:43:51.789Z,18.35
2019-05-13T10:45:58.294Z,9.93
2019-05-13T10:48:02.923Z,6.58
2019-05-13T10:50:08.031Z,9.08
2019-05-13T10:52:12.420Z,15.50
2019-05-13T10:54:16.756Z,9.60
2019-05-13T10:56:20.759Z,12.28
2019-05-13T10:58:24.717Z,6.72
2019-05-13T11:00:54.708Z,6.90
2019-05-13T11:03:00.147Z,6.83
2019-05-13T11:05:06.498Z,12.55
2019-05-13T11:07:12.109Z,7.67
2019-05-13T11:09:15.951Z,4.25
2019-05-13T11:11:21.876Z,4.90
2019-05-13T11:13:25.494Z,8.90
2019-05-13T11:15:32.816Z,13.25
2019-05-13T11:17:37.556Z,12.10
2019-05-13T11:19:41.386Z,15.85
2019-05-13T11:23:53.732Z,5.28
2019-05-13T11:25:57.788Z,7.75
2019-05-13T11:28:01.839Z,16.70
2019-05-13T11:30:07.733Z,11.48
2019-05-13T11:32:13.672Z,9.98
2019-05-13T11:34:17.655Z,6.28
2019-05-13T11:36:24.565Z,8.23
2019-05-13T11:38:32.728Z,16.15
2019-05-13T11:40:35.082Z,12.88
2019-05-13T11:42:42.003Z,12.90
2019-05-13T11:44:45.010Z,6.47
2019-05-13T11:46:48.903Z,12.47
2019-05-13T11:48:52.794Z,5.28
2019-05-13T11:50:56.640Z,4.58
2019-05-13T11:53:06.018Z,6.25
2019-05-13T11:55:12.761Z,5.30
2019-05-13T11:57:15.248Z,5.20
2019-05-13T11:59:21.808Z,6.25
2019-05-13T12:01:24.801Z,4.42
2019-05-13T12:03:32.167Z,9.65
2019-05-13T12:05:34.184Z,6.12
2019-05-13T12:07:38.058Z,5.95
2019-05-13T12:09:42.146Z,9.23
2019-05-13T12:11:49.243Z,3.90
2019-05-13T12:13:54.787Z,2.77
2019-05-13T12:15:58.600Z,2.98
2019-05-13T12:18:02.998Z,4.92
2019-05-13T12:20:06.980Z,5.37
2019-05-13T12:22:13.199Z,3.58
2019-05-13T12:24:16.388Z,4.90
2019-05-13T12:26:23.468Z,6.28
2019-05-13T12:28:27.341Z,2.95
2019-05-13T12:30:33.889Z,6.45
2019-05-13T12:32:38.130Z,2.27
2019-05-13T12:34:45.813Z,4.37
2019-05-13T12:36:49.587Z,3.42
2019-05-13T12:38:54.386Z,3.75
2019-05-13T12:40:58.460Z,4.65
2019-05-13T12:43:02.565Z,4.53
2019-05-13T12:45:10.082Z,3.50
2019-05-13T12:47:13.000Z,4.78
2019-05-13T12:49:16.878Z,3.77
2019-05-13T12:51:22.706Z,3.75
2019-05-13T12:53:26.520Z,3.85
2019-05-13T12:55:32.925Z,3.15
2019-05-13T12:57:36.135Z,6.45
2019-05-13T12:59:42.653Z,8.73
2019-05-13T13:01:47.003Z,5.15
2019-05-13T13:03:50.882Z,5.75
2019-05-13T13:06:20.988Z,3.10
2019-05-13T13:08:17.109Z,2.55
2019-05-13T13:10:07.399Z,4.83
2019-05-13T13:12:34.251Z,2.70
2019-05-13T13:14:38.486Z,11.53
2019-05-13T13:16:36.252Z,2.95
2019-05-13T13:18:43.541Z,4.65
2019-05-13T13:20:46.077Z,4.87
2019-05-13T13:22:50.045Z,3.60
2019-05-13T13:24:57.759Z,6.00
2019-05-13T13:27:01.706Z,6.40
2019-05-13T13:29:05.674Z,3.33
2019-05-13T13:31:12.149Z,3.87
2019-05-13T13:33:15.417Z,4.42
2019-05-13T13:35:21.722Z,4.00
2019-05-13T13:37:24.987Z,4.12
2019-05-13T13:39:28.954Z,3.30
2019-05-13T13:41:33.088Z,5.03
2019-05-13T13:43:37.539Z,3.58
2019-05-13T13:46:06.490Z,4.28
2019-05-13T13:47:59.303Z,3.60
2019-05-13T13:49:56.286Z,6.53
2019-05-13T13:52:00.087Z,4.65
2019-05-13T13:54:03.958Z,11.83
2019-05-13T13:56:07.836Z,9.13
2019-05-13T13:58:25.957Z,7.20
2019-05-13T14:00:40.939Z,4.75
2019-05-13T14:02:42.978Z,5.28
2019-05-13T14:04:44.653Z,3.83
2019-05-13T14:06:28.717Z,7.97
2019-05-13T14:07:00.580Z,11.03
2019-05-13T14:08:54.290Z,8.13
2019-05-13T14:10:58.294Z,6.00
2019-05-13T14:13:04.794Z,10.40
2019-05-13T14:15:08.041Z,17.00
2019-05-13T14:17:11.929Z,7.35
2019-05-13T14:19:25.023Z,3.90
2019-05-13T14:21:29.084Z,4.33
2019-05-13T14:23:33.046Z,5.30
2019-05-13T14:25:36.922Z,4.10
2019-05-13T14:27:42.567Z,2.10
2019-05-13T14:29:49.422Z,3.45
2019-05-13T14:31:52.269Z,3.05
2019-05-13T14:33:56.208Z,2.05
2019-05-13T14:36:01.529Z,3.02
2019-05-13T14:38:05.577Z,5.58
2019-05-13T14:40:12.397Z,6.15
2019-05-13T14:42:16.670Z,7.17
2019-05-13T14:44:21.959Z,4.80
2019-05-13T14:46:43.161Z,3.12
2019-05-13T14:48:32.928Z,4.37
2019-05-13T14:50:37.274Z,3.20
2019-05-13T14:52:41.739Z,3.30
2019-05-13T14:54:45.934Z,12.78
2019-05-13T14:56:52.106Z,7.35
2019-05-13T14:58:55.261Z,8.30
2019-05-13T15:01:12.598Z,20.05
2019-05-13T15:03:04.836Z,19.30
2019-05-13T15:05:11.627Z,12.73
2019-05-13T15:07:15.884Z,11.10
2019-05-13T15:09:20.140Z,6.85
2019-05-13T15:11:25.315Z,5.03
2019-05-13T15:13:31.308Z,2.65
2019-05-13T15:15:34.772Z,4.10
2019-05-13T15:17:38.703Z,3.65
2019-05-13T15:19:45.567Z,2.87
2019-05-13T15:21:51.925Z,2.52
2019-05-13T15:23:55.000Z,3.80
2019-05-13T15:26:03.640Z,4.92
2019-05-13T15:28:07.595Z,2.77
2019-05-13T15:30:18.055Z,5.08
2019-05-13T15:32:21.764Z,5.47
2019-05-13T15:34:25.882Z,9.43
2019-05-13T15:36:31.573Z,6.70
2019-05-13T15:38:35.315Z,4.22
2019-05-13T15:40:41.277Z,5.83
2019-05-13T15:42:44.693Z,4.22
2019-05-13T15:44:48.666Z,5.72
2019-05-13T15:46:53.204Z,5.42
2019-05-13T15:48:57.044Z,5.58
2019-05-13T15:51:04.015Z,2.77
2019-05-13T15:53:07.979Z,5.47
2019-05-13T15:55:12.420Z,4.53
2019-05-13T15:57:16.642Z,3.90
2019-05-13T15:59:21.564Z,2.77
2019-05-13T16:01:25.588Z,9.30
2019-05-13T16:03:29.449Z,3.85
2019-05-13T16:05:33.399Z,5.60
2019-05-13T16:07:37.651Z,4.83
2019-05-13T16:09:42.040Z,5.45
2019-05-13T16:11:46.315Z,4.90
2019-05-13T16:13:51.816Z,5.62
2019-05-13T16:16:01.321Z,3.77
2019-05-13T16:18:06.185Z,7.10
2019-05-13T16:20:11.432Z,3.15
2019-05-13T16:22:15.354Z,3.67
2019-05-13T16:24:21.368Z,8.90
2019-05-13T16:26:27.199Z,10.95
2019-05-13T16:28:32.511Z,4.55
2019-05-13T16:30:36.162Z,6.72
2019-05-13T16:32:42.248Z,6.75
2019-05-13T16:34:45.751Z,10.30
2019-05-13T16:36:49.607Z,6.03
2019-05-13T16:38:53.442Z,5.37
2019-05-13T16:41:00.745Z,6.42
2019-05-13T16:43:08.075Z,5.45
2019-05-13T16:45:16.279Z,5.25
2019-05-13T16:47:24.494Z,9.90
2019-05-13T16:49:33.414Z,6.85
2019-05-13T16:51:42.548Z,11.95
2019-05-13T16:53:52.357Z,7.65
2019-05-13T16:55:56.763Z,18.25
2019-05-13T16:58:01.974Z,11.80
2019-05-13T17:00:08.457Z,10.72
2019-05-13T17:02:12.705Z,5.42
2019-05-13T17:04:16.719Z,4.53
2019-05-13T17:06:21.709Z,9.20
2019-05-13T17:08:25.788Z,9.88
2019-05-13T17:10:31.561Z,7.75
2019-05-13T17:12:35.904Z,10.80
2019-05-13T17:14:41.639Z,14.30
2019-05-13T17:16:51.798Z,14.07
2019-05-13T17:18:55.999Z,13.45
2019-05-13T17:21:01.459Z,8.05
2019-05-13T17:23:07.412Z,7.55
2019-05-13T17:25:14.515Z,7.62
2019-05-13T17:27:22.966Z,14.15
2019-05-13T17:29:31.920Z,10.48
2019-05-13T17:31:37.386Z,7.42
2019-05-13T17:33:43.492Z,7.78
2019-05-13T17:35:50.251Z,9.18
2019-05-13T17:37:58.766Z,8.78
2019-05-13T17:40:06.708Z,7.42
2019-05-13T17:42:13.698Z,9.38
2019-05-13T17:44:17.968Z,9.83
2019-05-13T17:46:22.022Z,8.68
2019-05-13T17:48:29.541Z,8.28
2019-05-13T17:50:32.041Z,8.05
2019-05-13T17:52:35.959Z,7.95
2019-05-13T17:54:42.601Z,6.60
2019-05-13T17:56:54.182Z,8.18
2019-05-13T17:58:58.025Z,9.15
2019-05-13T18:01:03.506Z,8.93
2019-05-13T18:03:07.433Z,6.12
2019-05-13T18:05:12.105Z,9.48
2019-05-13T18:07:16.136Z,5.55
2019-05-13T18:09:22.200Z,6.87
2019-05-13T18:11:25.614Z,8.83
2019-05-13T18:13:29.468Z,7.75
2019-05-13T18:15:33.415Z,7.37
2019-05-13T18:17:37.318Z,14.35
2019-05-13T18:19:42.137Z,9.33
2019-05-13T18:21:46.271Z,7.17
2019-05-13T18:23:52.210Z,9.70
2019-05-13T18:25:55.616Z,10.78
2019-05-13T18:28:01.418Z,5.62
2019-05-13T18:30:07.518Z,6.97
2019-05-13T18:32:12.320Z,8.05
2019-05-13T18:34:16.455Z,9.48
2019-05-13T18:36:22.287Z,11.03
2019-05-13T18:38:26.034Z,9.75
2019-05-13T18:40:31.583Z,10.05
2019-05-13T18:42:35.582Z,8.38
2019-05-13T18:44:41.987Z,11.45
2019-05-13T18:46:45.192Z,17.23
2019-05-13T18:48:58.523Z,14.78
2019-05-13T18:50:54.808Z,14.18
2019-05-13T18:52:58.695Z,14.05
2019-05-13T18:55:05.214Z,10.95
2019-05-13T18:57:12.810Z,9.85
2019-05-13T18:59:21.440Z,11.70
2019-05-13T19:01:25.698Z,14.15
2019-05-13T19:03:32.032Z,10.50
2019-05-13T19:05:35.164Z,17.60
2019-05-13T19:07:39.056Z,18.80
2019-05-13T19:09:42.929Z,15.30
2019-05-13T19:11:46.799Z,19.12
2019-05-13T19:13:52.783Z,12.40
2019-05-13T19:15:56.348Z,16.15
2019-05-13T19:18:00.251Z,12.25
2019-05-13T19:20:05.525Z,13.15
2019-05-13T19:22:09.411Z,16.32
2019-05-13T19:24:13.524Z,11.45
2019-05-13T19:26:17.576Z,12.30
2019-05-13T19:28:22.262Z,12.43
2019-05-13T19:30:26.234Z,11.73
2019-05-13T19:32:32.191Z,11.70
2019-05-13T19:34:35.635Z,12.63
2019-05-13T19:36:39.512Z,10.18
2019-05-13T19:38:43.354Z,9.58
2019-05-13T19:40:48.769Z,9.05
2019-05-13T19:42:52.744Z,9.35
2019-05-13T19:44:56.720Z,13.83
2019-05-13T19:47:02.018Z,14.07
2019-05-13T19:49:06.085Z,13.98
2019-05-13T19:51:10.092Z,15.15
2019-05-13T19:53:14.070Z,14.28
2019-05-13T19:55:18.132Z,14.58
2019-05-13T19:57:22.030Z,15.28
2019-05-13T19:59:25.969Z,13.93
2019-05-13T20:01:32.052Z,15.20
2019-05-13T20:03:35.420Z,15.68
2019-05-13T20:05:41.259Z,14.45
2019-05-13T20:07:52.345Z,13.43
2019-05-13T20:09:57.897Z,13.50
2019-05-13T20:12:02.194Z,12.80
2019-05-13T20:14:06.175Z,14.40
2019-05-13T20:16:11.708Z,15.32
2019-05-13T20:18:15.975Z,18.90
2019-05-13T20:20:21.282Z,19.20
2019-05-13T20:22:25.247Z,14.80
2019-05-13T20:24:31.217Z,17.65
2019-05-13T20:26:35.746Z,18.60
2019-05-13T20:28:41.820Z,16.90
2019-05-13T20:30:45.591Z,15.72
2019-05-13T20:32:51.550Z,23.15
2019-05-13T20:34:55.164Z,17.82
2019-05-13T20:36:59.038Z,16.75
2019-05-13T20:39:03.322Z,17.05
2019-05-13T20:41:07.200Z,17.40
2019-05-13T20:43:11.838Z,20.92
2019-05-13T20:45:15.904Z,21.77
2019-05-13T20:47:21.332Z,21.37
2019-05-13T20:49:25.347Z,22.55
2019-05-13T20:51:31.184Z,22.77
2019-05-13T20:53:34.771Z,19.77
2019-05-13T20:55:38.912Z,20.23
2019-05-13T20:57:42.859Z,23.98
2019-05-13T20:59:46.663Z,31.15
2019-05-13T21:01:51.160Z,29.37
2019-05-13T21:03:55.665Z,23.85
2019-05-13T21:05:59.532Z,23.18
2019-05-13T21:08:03.348Z,22.65
2019-05-13T21:10:07.346Z,24.77
2019-05-13T21:12:12.019Z,22.80
2019-05-13T21:14:16.139Z,19.37
2019-05-13T21:16:21.767Z,18.45
2019-05-13T21:18:25.533Z,19.87
2019-05-13T21:20:31.940Z,21.10
2019-05-13T21:22:35.163Z,21.02
2019-05-13T21:24:41.098Z,22.87
2019-05-13T21:26:44.610Z,25.15
2019-05-13T21:28:52.057Z,20.23
2019-05-13T21:30:58.343Z,20.62
2019-05-13T21:33:05.339Z,29.32
2019-05-13T21:35:12.119Z,23.73
2019-05-13T21:37:16.016Z,25.23
2019-05-13T21:39:21.418Z,27.95
2019-05-13T21:41:25.366Z,25.70
2019-05-13T21:43:29.307Z,24.65
2019-05-13T21:45:33.182Z,31.23
2019-05-13T21:47:37.032Z,24.65
2019-05-13T21:49:42.389Z,25.15
2019-05-13T21:51:49.524Z,25.52
2019-05-13T21:53:54.865Z,24.82
2019-05-13T21:55:58.778Z,26.52
2019-05-13T21:58:03.271Z,29.50
2019-05-13T22:00:10.561Z,31.35
2019-05-13T22:02:15.022Z,33.00
2019-05-13T22:04:18.950Z,32.25
2019-05-13T22:06:22.798Z,36.85
2019-05-13T22:08:26.649Z,32.03
2019-05-13T22:10:31.111Z,31.73
2019-05-13T22:12:35.229Z,34.38
2019-05-13T22:14:41.046Z,29.60
2019-05-13T22:16:45.448Z,33.02
2019-05-13T22:18:49.329Z,29.45
2019-05-13T22:20:53.715Z,31.60
2019-05-13T22:23:01.332Z,31.45
2019-05-13T22:25:07.706Z,30.95
2019-05-13T22:27:13.280Z,27.00
2019-05-13T22:29:17.643Z,27.85
2019-05-13T22:31:22.238Z,30.10
2019-05-13T22:33:26.565Z,27.50
2019-05-13T22:35:33.136Z,30.32
2019-05-13T22:37:37.049Z,24.02
2019-05-13T22:39:42.057Z,29.27
2019-05-13T22:41:48.516Z,29.37
2019-05-13T22:43:58.464Z,31.00
2019-05-13T22:45:58.461Z,28.50
2019-05-13T22:48:03.348Z,28.57
2019-05-13T22:50:07.467Z,27.32
2019-05-13T22:52:12.871Z,26.25
2019-05-13T22:54:16.743Z,25.48
2019-05-13T22:56:22.277Z,24.77
2019-05-13T22:58:28.050Z,25.77
2019-05-13T23:00:31.960Z,26.12
2019-05-13T23:02:36.171Z,28.62
2019-05-13T23:04:41.838Z,26.25
2019-05-13T23:06:45.953Z,26.55
2019-05-13T23:08:49.845Z,25.40
2019-05-13T23:10:54.936Z,24.63
2019-05-13T23:12:59.130Z,25.37
2019-05-13T23:15:03.423Z,25.15
2019-05-13T23:17:07.272Z,27.40
2019-05-13T23:19:11.896Z,28.80
2019-05-13T23:21:17.347Z,25.12
2019-05-13T23:23:22.145Z,23.98
2019-05-13T23:25:26.999Z,25.90
2019-05-13T23:27:32.095Z,22.22
2019-05-13T23:29:36.161Z,24.90
2019-05-13T23:31:41.477Z,26.87
2019-05-13T23:33:46.170Z,24.75
2019-05-13T23:35:51.515Z,26.37
2019-05-13T23:37:55.432Z,25.20
2019-05-13T23:40:01.259Z,25.02
2019-05-13T23:42:05.049Z,23.62
2019-05-13T23:44:23.287Z,20.77
2019-05-13T23:46:14.863Z,20.97
2019-05-13T23:48:18.759Z,22.45
2019-05-13T23:50:23.234Z,22.25
2019-05-13T23:52:27.151Z,20.25
2019-05-13T23:54:31.610Z,20.85
2019-05-13T23:56:36.983Z,20.57
2019-05-13T23:58:41.360Z,21.95
